Time;durP1;ratioP1;P1;durP2;ratioP2;P2;SDS_P1;SDS_P2;PMS_P1;PMS_P2;Temp;Humidity;BMP_temperature;BMP_pressure;BME280_temperature;BME280_humidity;BME280_pressure;Samples;Min_cycle;Max_cycle;Signal;HPM_P1;HPM_P2
2023/05/06 00:01:50;;;;;;;2.10;1.30;;;;;;;13.46;100.00;100126.03;5097153;28;20226;-69
2023/05/06 00:04:15;;;;;;;1.73;1.30;;;;;;;13.48;100.00;100123.34;5068920;28;20646;-69
2023/05/06 00:06:41;;;;;;;4.63;1.43;;;;;;;13.43;100.00;100123.66;5092997;28;20195;-70
2023/05/06 00:09:06;;;;;;;2.27;1.30;;;;;;;13.42;100.00;100122.03;5092506;28;20200;-69
2023/05/06 00:11:32;;;;;;;3.90;1.60;;;;;;;13.36;100.00;100114.63;5094486;28;20231;-69
2023/05/06 00:13:57;;;;;;;1.40;1.10;;;;;;;13.30;100.00;100115.84;5097042;28;20175;-69
2023/05/06 00:16:22;;;;;;;2.43;1.50;;;;;;;13.29;100.00;100113.38;5092427;28;20653;-69
2023/05/06 00:18:48;;;;;;;3.53;1.53;;;;;;;13.28;100.00;100109.94;5092978;28;20176;-69
2023/05/06 00:21:13;;;;;;;3.97;1.90;;;;;;;13.17;100.00;100100.34;5091600;28;20243;-70
2023/05/06 00:23:38;;;;;;;1.90;1.13;;;;;;;13.15;100.00;100097.03;5091696;28;20176;-69
2023/05/06 00:26:04;;;;;;;1.73;1.00;;;;;;;13.09;100.00;100100.00;5091699;28;20176;-69
2023/05/06 00:28:29;;;;;;;4.07;1.17;;;;;;;13.09;100.00;100094.84;5092014;28;20191;-69
2023/05/06 00:30:54;;;;;;;3.07;1.60;;;;;;;13.06;100.00;100092.44;5083877;28;20223;-69
2023/05/06 00:33:19;;;;;;;4.93;1.70;;;;;;;13.06;100.00;100093.28;5100895;28;20180;-69
2023/05/06 00:35:45;;;;;;;3.33;1.13;;;;;;;13.06;100.00;100093.28;5091516;28;20638;-68
2023/05/06 00:38:12;;;;;;;1.67;1.50;;;;;;;12.97;100.00;100101.63;5090555;28;20225;-69
2023/05/06 00:40:38;;;;;;;1.60;1.17;;;;;;;12.93;100.00;100107.09;5085856;28;20277;-69
2023/05/06 00:43:04;;;;;;;1.80;1.53;;;;;;;12.90;100.00;100106.38;5102043;28;20180;-69
2023/05/06 00:45:29;;;;;;;2.67;1.20;;;;;;;12.88;100.00;100109.97;5091220;28;20179;-68
2023/05/06 00:47:55;;;;;;;1.63;1.33;;;;;;;12.85;100.00;100112.72;5085580;28;20653;-69
2023/05/06 00:50:21;;;;;;;5.20;1.37;;;;;;;12.79;100.00;100097.63;5076200;28;20630;-69
2023/05/06 00:52:46;;;;;;;3.37;1.60;;;;;;;12.72;100.00;100100.59;5103971;28;20184;-69
2023/05/06 00:55:12;;;;;;;2.63;1.33;;;;;;;12.67;100.00;100100.06;5089654;28;20180;-69
2023/05/06 00:57:39;;;;;;;3.23;1.60;;;;;;;12.67;100.00;100101.84;5092255;28;20168;-69
2023/05/06 01:00:06;;;;;;;3.00;1.43;;;;;;;12.54;100.00;100104.34;5083494;28;20252;-69
2023/05/06 01:02:31;;;;;;;4.63;1.63;;;;;;;12.47;100.00;100101.34;5107336;28;20610;-69
2023/05/06 01:04:57;;;;;;;2.83;1.70;;;;;;;12.36;100.00;100102.00;5090928;28;20354;-68
2023/05/06 01:07:32;;;;;;;1.77;1.60;;;;;;;12.24;100.00;100097.59;5091292;28;20233;-68
2023/05/06 01:10:17;;;;;;;2.93;1.30;;;;;;;12.11;100.00;100093.19;5091099;28;20578;-68
2023/05/06 01:12:46;;;;;;;1.60;1.43;;;;;;;12.11;100.00;100097.53;5064259;28;20369;-68
2023/05/06 01:15:25;;;;;;;3.40;1.33;;;;;;;12.12;100.00;100106.94;5089464;28;20183;-69
2023/05/06 01:17:52;;;;;;;2.43;1.60;;;;;;;12.09;100.00;100101.94;5092686;28;20221;-69
2023/05/06 01:20:20;;;;;;;2.03;1.70;;;;;;;11.87;100.00;100098.06;5082583;28;20302;-69
2023/05/06 01:22:45;;;;;;;3.47;1.80;;;;;;;11.91;100.00;100104.69;5104958;28;20231;-69
2023/05/06 01:25:19;;;;;;;3.53;1.80;;;;;;;11.83;100.00;100095.75;5090606;28;20598;-68
2023/05/06 01:27:44;;;;;;;3.30;1.53;;;;;;;11.80;100.00;100101.94;5090653;28;20637;-68
2023/05/06 01:30:10;;;;;;;1.50;1.40;;;;;;;11.77;100.00;100102.09;5081797;28;20184;-69
2023/05/06 01:32:59;;;;;;;2.63;1.53;;;;;;;11.62;100.00;100096.94;5089526;28;20179;-69
2023/05/06 01:35:28;;;;;;;3.63;1.50;;;;;;;11.61;100.00;100099.63;5073312;28;20180;-70
2023/05/06 01:38:19;;;;;;;2.20;1.70;;;;;;;11.51;100.00;100099.34;5089529;28;20560;-69
2023/05/06 01:40:53;;;;;;;2.20;1.70;;;;;;;11.53;100.00;100097.47;5085454;28;20231;-69
2023/05/06 01:43:19;;;;;;;2.60;1.80;;;;;;;11.50;100.00;100100.25;5100463;28;20222;-69
2023/05/06 01:45:51;;;;;;;1.87;1.77;;;;;;;11.48;100.00;100101.25;5090452;28;20176;-69
2023/05/06 01:48:22;;;;;;;4.27;1.70;;;;;;;11.44;100.00;100108.34;5091593;28;20200;-69
2023/05/06 01:50:47;;;;;;;1.97;1.70;;;;;;;11.44;100.00;100109.16;5085773;28;20230;-69
2023/05/06 01:53:12;;;;;;;2.37;1.87;;;;;;;11.40;100.00;100114.56;5101423;28;20184;-68
2023/05/06 01:55:38;;;;;;;3.17;2.20;;;;;;;11.32;100.00;100114.19;5089544;28;20188;-69
2023/05/06 01:58:03;;;;;;;3.10;1.60;;;;;;;11.29;100.00;100123.75;5082207;28;20237;-68
2023/05/06 02:00:29;;;;;;;1.93;1.73;;;;;;;11.23;100.00;100121.50;5081032;28;20226;-68
2023/05/06 02:02:54;;;;;;;2.20;2.00;;;;;;;11.32;100.00;100119.34;5104062;28;20293;-69
2023/05/06 02:05:19;;;;;;;2.50;1.70;;;;;;;11.36;100.00;100123.38;5089741;28;20216;-70
2023/05/06 02:07:44;;;;;;;3.63;2.10;;;;;;;11.27;100.00;100122.97;5092239;28;20591;-68
2023/05/06 02:10:10;;;;;;;2.97;1.83;;;;;;;11.18;100.00;100115.81;5073857;28;20550;-69
2023/05/06 02:12:35;;;;;;;3.03;2.03;;;;;;;11.09;100.00;100122.31;5086959;28;20206;-69
2023/05/06 02:15:00;;;;;;;3.47;2.23;;;;;;;11.21;100.00;100119.94;5075034;28;20177;-68
2023/05/06 02:17:26;;;;;;;2.93;2.00;;;;;;;11.25;100.00;100118.84;5070716;28;20628;-69
2023/05/06 02:19:51;;;;;;;3.30;2.30;;;;;;;11.25;100.00;100121.41;5090183;28;20201;-67
2023/05/06 02:22:16;;;;;;;3.53;2.30;;;;;;;11.24;100.00;100124.94;5096902;28;20239;-68
2023/05/06 02:24:41;;;;;;;2.57;1.87;;;;;;;11.28;100.00;100134.13;5080823;28;20187;-69
2023/05/06 02:27:07;;;;;;;4.37;2.30;;;;;;;11.25;100.00;100130.00;5071086;28;20200;-69
2023/05/06 02:29:32;;;;;;;2.57;2.07;;;;;;;11.21;100.00;100132.81;5082809;28;20188;-69
2023/05/06 02:31:57;;;;;;;2.60;1.77;;;;;;;11.21;100.00;100131.09;5095648;28;20234;-68
2023/05/06 02:34:23;;;;;;;3.77;2.20;;;;;;;11.16;100.00;100133.06;5092306;28;20180;-68
2023/05/06 02:36:48;;;;;;;3.90;2.10;;;;;;;11.05;100.00;100136.28;5090171;28;20184;-68
2023/05/06 02:39:13;;;;;;;2.40;2.20;;;;;;;11.05;100.00;100133.69;5090869;28;20207;-68
2023/05/06 02:41:39;;;;;;;2.63;1.60;;;;;;;11.10;100.00;100134.25;5092341;28;20221;-67
2023/05/06 02:44:05;;;;;;;3.00;2.33;;;;;;;11.01;100.00;100131.38;5093914;28;20179;-68
2023/05/06 02:46:31;;;;;;;5.37;2.10;;;;;;;11.04;100.00;100128.59;5089234;28;20248;-67
2023/05/06 02:48:56;;;;;;;3.13;2.13;;;;;;;10.98;100.00;100134.94;5092121;28;20190;-68
2023/05/06 02:51:22;;;;;;;1.90;1.80;;;;;;;10.94;100.00;100128.28;5092938;28;20222;-68
2023/05/06 02:53:47;;;;;;;3.77;2.40;;;;;;;10.90;100.00;100135.38;5092970;28;20193;-68
2023/05/06 02:56:12;;;;;;;2.80;2.10;;;;;;;10.78;100.00;100129.16;5093151;28;20186;-68
2023/05/06 02:58:37;;;;;;;2.37;2.17;;;;;;;10.76;100.00;100130.97;5079856;28;20173;-68
2023/05/06 03:01:03;;;;;;;2.53;2.33;;;;;;;10.76;100.00;100128.41;5054795;28;20699;-68
2023/05/06 03:03:28;;;;;;;2.80;2.50;;;;;;;10.59;100.00;100133.63;5064242;28;20192;-68
2023/05/06 03:05:53;;;;;;;2.47;2.27;;;;;;;10.62;100.00;100129.16;5074667;28;20173;-67
2023/05/06 03:08:19;;;;;;;3.60;2.27;;;;;;;10.64;100.00;100127.34;5075008;28;20185;-68
2023/05/06 03:10:44;;;;;;;2.80;2.40;;;;;;;10.68;100.00;100127.16;5077520;28;20295;-68
2023/05/06 03:13:09;;;;;;;3.70;2.30;;;;;;;10.62;100.00;100126.59;5104258;28;20180;-68
2023/05/06 03:15:34;;;;;;;2.57;2.37;;;;;;;10.60;100.00;100130.16;5089019;28;20223;-68
2023/05/06 03:18:00;;;;;;;3.63;2.20;;;;;;;10.60;100.00;100133.53;5093325;28;20267;-69
2023/05/06 03:20:27;;;;;;;4.70;3.20;;;;;;;10.49;100.00;100134.16;5087848;28;20234;-69
2023/05/06 03:22:52;;;;;;;2.80;2.40;;;;;;;10.39;100.00;100139.84;5086892;28;20252;-69
2023/05/06 03:25:18;;;;;;;4.20;2.40;;;;;;;10.40;100.00;100132.06;5074714;28;20303;-69
2023/05/06 03:27:43;;;;;;;5.77;2.63;;;;;;;10.37;100.00;100137.38;5074983;28;20648;-70
2023/05/06 03:30:09;;;;;;;2.50;2.30;;;;;;;10.29;100.00;100136.91;5044980;28;20177;-68
2023/05/06 03:32:34;;;;;;;3.07;2.73;;;;;;;10.31;100.00;100135.91;5076313;28;20177;-69
2023/05/06 03:34:59;;;;;;;4.10;2.40;;;;;;;10.43;100.00;100141.34;5074594;28;20238;-68
2023/05/06 03:37:25;;;;;;;2.57;2.37;;;;;;;10.47;100.00;100142.84;5074647;28;20177;-69
2023/05/06 03:39:50;;;;;;;2.30;2.10;;;;;;;10.48;100.00;100140.19;5074853;28;20197;-68
2023/05/06 03:42:15;;;;;;;3.57;2.77;;;;;;;10.45;100.00;100139.53;5079445;28;20220;-68
2023/05/06 03:44:40;;;;;;;6.13;2.87;;;;;;;10.44;100.00;100143.84;5073704;28;20267;-69
2023/05/06 03:47:06;;;;;;;3.30;2.47;;;;;;;10.42;100.00;100149.97;5074497;28;20597;-69
2023/05/06 03:49:31;;;;;;;3.70;2.23;;;;;;;10.50;100.00;100147.81;5074666;28;20189;-69
2023/05/06 03:51:56;;;;;;;3.77;2.40;;;;;;;10.43;100.00;100147.34;5078918;28;20215;-69
2023/05/06 03:54:22;;;;;;;5.47;3.70;;;;;;;10.30;100.00;100147.09;5069712;28;20599;-70
2023/05/06 03:56:47;;;;;;;5.97;2.60;;;;;;;10.37;100.00;100151.94;5083129;28;20184;-70
2023/05/06 03:59:12;;;;;;;4.53;2.70;;;;;;;10.41;100.00;100138.03;5086976;28;20176;-70
2023/05/06 04:01:37;;;;;;;4.43;2.77;;;;;;;10.41;100.00;100148.31;5075715;28;20234;-70
2023/05/06 04:04:03;;;;;;;4.60;3.10;;;;;;;10.42;100.00;100149.97;5072706;28;20177;-69
2023/05/06 04:06:28;;;;;;;5.30;2.83;;;;;;;10.45;100.00;100144.66;5085438;28;20184;-69
2023/05/06 04:08:53;;;;;;;2.83;2.17;;;;;;;10.42;100.00;100150.81;5075108;28;20192;-70
2023/05/06 04:11:19;;;;;;;2.90;2.60;;;;;;;10.39;100.00;100150.97;5085662;28;20546;-69
2023/05/06 04:13:44;;;;;;;5.03;2.90;;;;;;;10.36;100.00;100151.13;5093780;28;20170;-69
2023/05/06 04:16:11;;;;;;;5.50;2.53;;;;;;;10.29;100.00;100155.72;5085166;28;20616;-69
2023/05/06 04:18:36;;;;;;;4.30;3.30;;;;;;;10.31;100.00;100153.91;5073791;28;20708;-68
2023/05/06 04:21:01;;;;;;;5.57;2.90;;;;;;;10.37;100.00;100149.38;5071101;28;20232;-69
2023/05/06 04:23:27;;;;;;;4.03;2.70;;;;;;;10.39;100.00;100150.13;5081994;28;20176;-68
2023/05/06 04:25:52;;;;;;;3.40;2.63;;;;;;;10.40;100.00;100155.19;5073404;28;20707;-68
2023/05/06 04:28:17;;;;;;;3.73;2.77;;;;;;;10.38;100.00;100151.91;5075179;28;20173;-69
2023/05/06 04:30:43;;;;;;;4.97;3.03;;;;;;;10.44;100.00;100154.13;5069749;28;20236;-69
2023/05/06 04:33:09;;;;;;;6.10;2.47;;;;;;;10.47;100.00;100171.16;5056372;28;20631;-68
2023/05/06 04:35:35;;;;;;;6.33;2.90;;;;;;;10.54;100.00;100166.50;5074154;28;20180;-69
2023/05/06 04:38:02;;;;;;;2.17;2.07;;;;;;;10.52;100.00;100169.16;5074232;28;20177;-69
2023/05/06 04:40:28;;;;;;;2.97;2.63;;;;;;;10.57;100.00;100159.44;5069301;28;20228;-70
2023/05/06 04:42:54;;;;;;;3.87;2.33;;;;;;;10.70;100.00;100166.50;5077692;28;20207;-69
2023/05/06 04:45:19;;;;;;;6.87;2.70;;;;;;;10.79;100.00;100168.56;5075868;28;20596;-69
2023/05/06 04:47:44;;;;;;;4.80;2.40;;;;;;;10.90;100.00;100158.53;5079248;28;20611;-69
2023/05/06 04:50:10;;;;;;;2.70;2.50;;;;;;;11.00;100.00;100155.44;5066701;28;20202;-69
2023/05/06 04:52:36;;;;;;;3.80;2.47;;;;;;;11.18;100.00;100161.31;5087543;28;20172;-69
2023/05/06 04:55:02;;;;;;;5.57;3.30;;;;;;;11.35;100.00;100163.78;5070855;28;20188;-69
2023/05/06 04:57:28;;;;;;;2.57;2.37;;;;;;;11.57;100.00;100160.81;5090816;28;20188;-70
2023/05/06 04:59:53;;;;;;;2.27;2.07;;;;;;;11.74;100.00;100164.13;5080211;28;20232;-70
2023/05/06 05:02:18;;;;;;;6.27;2.90;;;;;;;11.93;100.00;100169.88;5086895;28;20306;-70
2023/05/06 05:04:44;;;;;;;2.87;2.57;;;;;;;12.00;100.00;100170.34;5080050;28;20180;-70
2023/05/06 05:07:09;;;;;;;2.07;1.97;;;;;;;12.08;100.00;100178.47;5081153;28;20176;-70
2023/05/06 05:09:35;;;;;;;4.03;2.80;;;;;;;12.30;100.00;100171.19;5092791;28;20198;-70
2023/05/06 05:12:01;;;;;;;2.80;2.40;;;;;;;12.28;100.00;100181.63;5096987;28;20230;-71
2023/05/06 05:14:26;;;;;;;2.73;1.90;;;;;;;12.37;100.00;100177.66;5076441;28;20181;-71
2023/05/06 05:16:52;;;;;;;3.53;2.33;;;;;;;12.57;100.00;100182.41;5060601;28;20189;-71
2023/05/06 05:19:17;;;;;;;5.03;2.47;;;;;;;12.61;100.00;100177.88;5071744;28;20679;-71
2023/05/06 05:21:42;;;;;;;3.27;2.37;;;;;;;12.84;100.00;100181.63;5075332;28;20250;-71
2023/05/06 05:24:07;;;;;;;3.63;1.90;;;;;;;12.86;100.00;100179.78;5079683;28;20184;-71
2023/05/06 05:26:33;;;;;;;5.03;2.00;;;;;;;12.96;100.00;100184.34;5092164;28;20184;-70
2023/05/06 05:28:58;;;;;;;2.47;2.00;;;;;;;13.05;100.00;100186.38;5092279;28;20267;-71
2023/05/06 05:31:23;;;;;;;2.10;1.90;;;;;;;13.18;100.00;100187.22;5083638;28;20215;-71
2023/05/06 05:33:48;;;;;;;4.60;2.10;;;;;;;13.28;100.00;100181.47;5097860;28;20740;-71
2023/05/06 05:36:14;;;;;;;3.80;2.23;;;;;;;13.39;100.00;100181.63;5091283;28;20183;-71
2023/05/06 05:38:40;;;;;;;2.43;1.87;;;;;;;13.37;100.00;100184.31;5092144;28;20283;-71
2023/05/06 05:41:05;;;;;;;2.17;1.53;;;;;;;13.28;100.00;100184.88;5089984;28;20218;-71
2023/05/06 05:43:31;;;;;;;7.50;2.63;;;;;;;13.10;100.00;100188.63;5074827;28;20269;-71
2023/05/06 05:45:56;;;;;;;3.67;2.30;;;;;;;13.14;100.00;100180.59;5071577;28;20187;-71
2023/05/06 05:48:21;;;;;;;4.93;2.73;;;;;;;13.15;100.00;100184.03;5072146;28;20181;-72
2023/05/06 05:50:46;;;;;;;3.80;2.20;;;;;;;13.08;100.00;100184.41;5067794;28;20227;-71
2023/05/06 05:53:12;;;;;;;4.70;1.97;;;;;;;13.20;100.00;100185.38;5081765;28;20191;-70
2023/05/06 05:55:37;;;;;;;3.30;2.23;;;;;;;13.50;100.00;100179.16;5074723;28;20176;-71
2023/05/06 05:58:02;;;;;;;3.87;2.17;;;;;;;13.66;100.00;100181.56;5082385;28;20210;-70
2023/05/06 06:00:27;;;;;;;3.53;1.97;;;;;;;13.74;100.00;100181.06;5063281;28;20255;-71
2023/05/06 06:02:53;;;;;;;3.47;1.70;;;;;;;13.86;100.00;100179.41;5084257;28;20181;-70
2023/05/06 06:05:18;;;;;;;2.47;1.93;;;;;;;14.06;100.00;100179.84;5071703;28;20216;-70
2023/05/06 06:07:44;;;;;;;2.87;1.80;;;;;;;14.00;100.00;100186.25;5083373;28;20212;-69
2023/05/06 06:10:11;;;;;;;1.60;1.50;;;;;;;14.01;100.00;100182.72;5081450;28;20192;-71
2023/05/06 06:12:36;;;;;;;2.73;2.00;;;;;;;14.04;100.00;100183.34;5106717;28;20183;-71
2023/05/06 06:15:02;;;;;;;3.10;1.73;;;;;;;13.95;100.00;100178.78;5079079;28;20605;-71
2023/05/06 06:17:27;;;;;;;4.23;1.90;;;;;;;14.27;100.00;100182.72;5091941;28;20192;-71
2023/05/06 06:19:56;;;;;;;1.87;1.73;;;;;;;14.47;100.00;100178.75;5086683;28;20211;-70
2023/05/06 06:22:21;;;;;;;2.30;1.70;;;;;;;14.59;100.00;100185.66;5072696;28;20242;-71
2023/05/06 06:24:46;;;;;;;2.30;1.60;;;;;;;14.60;100.00;100183.88;5082509;28;20176;-72
2023/05/06 06:27:12;;;;;;;1.87;1.30;;;;;;;14.89;100.00;100184.44;5097954;28;20549;-71
2023/05/06 06:29:37;;;;;;;2.70;1.30;;;;;;;15.28;100.00;100176.50;5084653;28;20217;-70
2023/05/06 06:32:02;;;;;;;1.70;1.20;;;;;;;16.31;100.00;100180.94;5085624;28;20236;-71
2023/05/06 06:34:28;;;;;;;2.20;1.33;;;;;;;17.68;100.00;100171.75;5082078;28;20549;-70
2023/05/06 06:36:53;;;;;;;4.40;1.20;;;;;;;19.31;100.00;100176.06;5088570;28;20329;-72
2023/05/06 06:39:18;;;;;;;1.83;1.40;;;;;;;21.28;92.02;100177.66;5088986;28;20187;-71
2023/05/06 06:41:43;;;;;;;1.00;1.00;;;;;;;23.07;76.19;100189.25;5098181;28;20269;-71
2023/05/06 06:44:09;;;;;;;2.80;1.10;;;;;;;24.19;62.37;100193.88;5093206;28;20176;-72
2023/05/06 06:46:34;;;;;;;1.70;1.07;;;;;;;25.57;52.62;100202.03;5098103;28;20206;-72
2023/05/06 06:49:00;;;;;;;2.30;1.17;;;;;;;27.09;47.15;100203.28;5096532;28;20176;-73
2023/05/06 06:51:26;;;;;;;4.82;1.27;;;;;;;27.93;44.54;100211.38;5094291;27;20231;-73
2023/05/06 06:53:51;;;;;;;2.03;1.15;;;;;;;27.05;45.07;100210.75;5076070;28;20180;-73
2023/05/06 06:56:16;;;;;;;2.70;1.02;;;;;;;27.66;45.11;100216.50;5089092;28;20180;-75
2023/05/06 06:58:41;;;;;;;1.95;1.00;;;;;;;28.35;41.90;100222.78;5084853;28;20275;-74
2023/05/06 07:01:07;;;;;;;2.08;1.20;;;;;;;28.21;41.82;100223.72;5064677;28;20759;-72
2023/05/06 07:03:32;;;;;;;2.63;1.00;;;;;;;28.97;39.99;100218.25;5073372;28;20189;-73
2023/05/06 07:05:58;;;;;;;1.98;1.20;;;;;;;30.82;36.60;100220.09;5080955;28;20184;-72
2023/05/06 07:08:23;;;;;;;3.42;1.10;;;;;;;30.71;34.97;100218.91;5081012;28;20231;-70
2023/05/06 07:10:48;;;;;;;2.22;0.85;;;;;;;31.20;35.37;100222.69;5080717;28;20237;-71
2023/05/06 07:13:14;;;;;;;2.05;0.98;;;;;;;30.67;35.71;100223.84;5094254;28;20177;-70
2023/05/06 07:15:39;;;;;;;1.88;1.33;;;;;;;31.68;34.39;100228.38;5079749;28;20223;-68
2023/05/06 07:18:05;;;;;;;1.77;0.98;;;;;;;32.12;33.72;100231.78;5086673;28;20182;-68
2023/05/06 07:20:30;;;;;;;1.70;1.17;;;;;;;30.80;36.26;100222.97;5082865;28;20489;-68
2023/05/06 07:22:55;;;;;;;2.08;1.25;;;;;;;28.42;40.99;100226.28;5098312;28;20717;-68
2023/05/06 07:25:21;;;;;;;3.03;1.15;;;;;;;26.37;48.18;100228.66;5090590;28;20248;-68
2023/05/06 07:27:46;;;;;;;2.30;1.13;;;;;;;25.09;56.88;100224.13;5086057;28;20183;-67
2023/05/06 07:30:12;;;;;;;1.30;1.13;;;;;;;26.60;50.68;100227.72;5058340;28;20180;-69
2023/05/06 07:32:37;;;;;;;1.48;1.33;;;;;;;26.16;50.69;100224.97;5088947;28;20279;-70
2023/05/06 07:35:02;;;;;;;2.58;1.38;;;;;;;26.87;50.91;100227.00;5095087;28;20211;-70
2023/05/06 07:37:28;;;;;;;2.70;1.00;;;;;;;28.41;44.86;100234.41;5065113;28;20185;-69
2023/05/06 07:39:53;;;;;;;3.05;1.52;;;;;;;28.14;45.50;100229.81;5092009;28;20199;-70
2023/05/06 07:42:18;;;;;;;2.53;1.23;;;;;;;28.65;42.83;100225.09;5092645;28;20281;-70
2023/05/06 07:44:43;;;;;;;1.83;1.27;;;;;;;28.41;45.04;100234.41;5090371;28;20187;-70
2023/05/06 07:47:09;;;;;;;2.15;1.10;;;;;;;28.81;42.34;100229.25;5093834;28;20631;-70
2023/05/06 07:49:34;;;;;;;1.35;1.02;;;;;;;28.88;43.72;100227.44;5090361;28;20180;-69
2023/05/06 07:51:59;;;;;;;2.92;1.30;;;;;;;28.84;43.51;100228.88;5065751;28;20227;-69
2023/05/06 07:54:25;;;;;;;1.50;1.10;;;;;;;29.50;43.09;100229.09;5072004;28;20176;-68
2023/05/06 07:56:50;;;;;;;1.67;1.10;;;;;;;28.25;42.54;100231.09;5068624;28;20527;-69
2023/05/06 07:59:15;;;;;;;2.15;1.17;;;;;;;28.86;42.48;100233.94;5068735;28;20254;-68
2023/05/06 08:01:41;;;;;;;1.00;0.77;;;;;;;30.00;39.38;100234.72;5070990;28;20216;-69
2023/05/06 08:04:06;;;;;;;1.27;1.05;;;;;;;31.18;37.30;100234.56;5071292;28;20192;-69
2023/05/06 08:06:32;;;;;;;2.92;1.15;;;;;;;31.45;35.43;100237.00;5085960;28;20539;-68
2023/05/06 08:08:57;;;;;;;1.92;0.82;;;;;;;29.75;37.00;100245.19;5076325;28;20196;-68
2023/05/06 08:11:22;;;;;;;5.15;1.10;;;;;;;27.38;41.60;100235.78;5081786;28;20223;-68
2023/05/06 08:13:48;;;;;;;1.65;0.93;;;;;;;28.86;39.39;100234.75;5074336;28;20185;-67
2023/05/06 08:16:13;;;;;;;1.50;0.93;;;;;;;29.17;38.76;100237.84;5081605;28;20196;-68
2023/05/06 08:18:38;;;;;;;2.00;1.00;;;;;;;29.70;39.51;100237.84;5071790;28;20200;-66
2023/05/06 08:21:04;;;;;;;3.10;0.73;;;;;;;29.44;39.94;100242.16;5074251;28;20265;-66
2023/05/06 08:23:30;;;;;;;1.17;1.00;;;;;;;29.14;38.89;100244.38;5072987;28;20173;-67
2023/05/06 08:25:56;;;;;;;3.50;0.95;;;;;;;30.08;37.53;100245.13;5077490;28;20177;-67
2023/05/06 08:28:21;;;;;;;1.63;1.23;;;;;;;30.16;36.88;100252.03;5062926;28;20215;-67
2023/05/06 08:30:47;;;;;;;1.65;0.90;;;;;;;30.20;36.55;100255.06;5066836;28;20220;-67
2023/05/06 08:33:12;;;;;;;3.42;1.08;;;;;;;30.14;36.45;100251.41;5072282;28;20616;-66
2023/05/06 08:35:38;;;;;;;1.40;0.93;;;;;;;28.45;39.66;100254.97;5067885;28;20225;-66
2023/05/06 08:38:03;;;;;;;1.75;0.95;;;;;;;29.83;37.17;100242.28;5065000;28;20192;-67
2023/05/06 08:40:31;;;;;;;2.33;0.80;;;;;;;30.65;36.98;100246.31;5056740;28;20309;-68
2023/05/06 08:42:58;;;;;;;1.70;1.10;;;;;;;29.39;37.85;100241.94;5075501;28;20193;-68
2023/05/06 08:45:24;;;;;;;1.10;1.00;;;;;;;29.16;39.67;100239.66;5089770;28;20191;-69
2023/05/06 08:47:50;;;;;;;1.10;1.00;;;;;;;30.61;36.22;100239.81;5093121;28;20198;-64
2023/05/06 08:50:16;;;;;;;2.25;0.90;;;;;;;31.20;34.06;100246.59;5084345;27;20539;-63
2023/05/06 08:52:41;;;;;;;1.52;0.93;;;;;;;29.59;37.38;100238.47;5091174;28;20176;-63
2023/05/06 08:55:08;;;;;;;0.80;0.80;;;;;;;30.54;35.92;100251.28;5092709;28;20568;-63
2023/05/06 08:57:34;;;;;;;1.48;0.90;;;;;;;31.37;36.00;100241.53;5090161;28;20523;-62
2023/05/06 09:00:00;;;;;;;1.65;1.02;;;;;;;30.75;35.47;100241.38;5084488;28;20209;-70
2023/05/06 09:02:26;;;;;;;1.92;0.90;;;;;;;29.28;37.45;100243.34;5068585;28;20224;-70
2023/05/06 09:04:52;;;;;;;0.80;0.80;;;;;;;27.15;40.76;100241.28;5077978;28;20276;-70
2023/05/06 09:07:22;;;;;;;1.42;0.98;;;;;;;29.02;37.37;100232.75;5087310;28;20398;-70
2023/05/06 09:09:47;;;;;;;1.15;0.95;;;;;;;29.62;38.15;100238.88;5083823;28;20201;-71
2023/05/06 09:12:13;;;;;;;0.95;0.70;;;;;;;27.79;39.87;100240.38;5093749;28;20231;-70
2023/05/06 09:14:39;;;;;;;1.50;1.02;;;;;;;27.62;40.82;100231.13;5075544;28;20310;-70
2023/05/06 09:17:22;;;;;;;1.83;0.80;;;;;;;26.98;40.45;100224.88;5088251;28;20222;-70
2023/05/06 09:19:48;;;;;;;1.58;0.80;;;;;;;28.62;39.54;100221.03;5083189;28;20539;-71
2023/05/06 09:22:13;;;;;;;3.85;0.88;;;;;;;30.71;35.81;100225.06;5093698;28;20364;-71
2023/05/06 09:24:38;;;;;;;2.38;0.85;;;;;;;31.05;34.53;100238.91;5083804;28;20184;-69
2023/05/06 09:27:04;;;;;;;0.82;0.73;;;;;;;30.73;33.46;100225.63;5087050;28;20224;-69
2023/05/06 09:29:29;;;;;;;1.38;0.73;;;;;;;31.42;34.40;100221.47;5083652;28;20233;-69
2023/05/06 09:31:55;;;;;;;0.90;0.80;;;;;;;28.36;38.70;100221.78;5078137;28;20219;-68
2023/05/06 09:34:21;;;;;;;0.88;0.60;;;;;;;29.58;35.44;100218.28;5082835;28;20197;-71
2023/05/06 09:36:46;;;;;;;0.82;0.60;;;;;;;29.10;35.92;100219.28;5089048;28;20187;-70
2023/05/06 09:39:11;;;;;;;0.75;0.68;;;;;;;28.88;36.46;100221.34;5085373;28;20173;-71
2023/05/06 09:41:37;;;;;;;1.40;0.80;;;;;;;28.02;38.27;100226.06;5091020;28;20713;-71
2023/05/06 09:44:03;;;;;;;1.63;0.80;;;;;;;29.17;35.49;100217.47;5088741;28;20181;-70
2023/05/06 09:46:28;;;;;;;2.08;0.60;;;;;;;30.35;35.22;100215.84;5074768;28;20185;-70
2023/05/06 09:48:56;;;;;;;4.20;0.93;;;;;;;30.24;33.83;100219.97;5075766;28;20177;-69
2023/05/06 09:51:21;;;;;;;2.03;0.82;;;;;;;29.43;35.71;100218.50;5080458;28;20306;-70
2023/05/06 09:53:47;;;;;;;2.13;0.90;;;;;;;28.55;36.07;100227.34;5079638;28;20699;-70
2023/05/06 09:56:14;;;;;;;1.05;0.85;;;;;;;25.32;42.64;100215.38;5087948;28;20180;-70
2023/05/06 09:58:40;;;;;;;2.50;1.00;;;;;;;24.29;51.88;100210.25;5091017;28;20178;-69
2023/05/06 10:01:07;;;;;;;1.92;0.98;;;;;;;22.56;67.46;100208.50;5089664;28;20617;-70
2023/05/06 10:03:33;;;;;;;1.58;0.60;;;;;;;22.72;64.98;100210.34;5089687;28;20172;-70
2023/05/06 10:06:04;;;;;;;1.98;1.15;;;;;;;22.12;73.57;100205.19;5089536;28;20188;-68
2023/05/06 10:08:32;;;;;;;1.08;0.70;;;;;;;22.13;71.03;100197.16;5090913;28;20178;-69
2023/05/06 10:10:59;;;;;;;2.13;0.90;;;;;;;22.16;70.68;100198.66;5088198;28;20231;-68
2023/05/06 10:13:26;;;;;;;3.63;1.00;;;;;;;23.75;61.84;100194.28;5089014;28;20188;-69
2023/05/06 10:15:51;;;;;;;1.67;0.50;;;;;;;25.07;54.50;100197.16;5090524;28;20339;-69
2023/05/06 10:18:18;;;;;;;0.98;0.70;;;;;;;24.30;56.70;100185.59;5089636;28;20180;-69
2023/05/06 10:20:45;;;;;;;3.33;0.98;;;;;;;25.07;58.69;100191.09;5086123;28;20658;-69
2023/05/06 10:23:42;;;;;;;1.30;0.73;;;;;;;26.06;46.58;100190.16;5101554;28;20218;-69
2023/05/06 10:26:10;;;;;;;1.40;1.00;;;;;;;26.81;42.65;100193.47;5088635;28;20196;-68
2023/05/06 10:28:41;;;;;;;0.60;0.60;;;;;;;27.16;43.70;100190.91;5091709;28;20184;-69
2023/05/06 10:31:10;;;;;;;3.08;0.95;;;;;;;29.01;39.81;100178.16;5082150;28;20675;-70
2023/05/06 10:33:36;;;;;;;1.10;0.98;;;;;;;29.94;34.81;100187.84;5098223;28;20252;-70
2023/05/06 10:36:32;;;;;;;1.17;0.50;;;;;;;31.55;34.11;100182.28;5089946;28;20210;-70
2023/05/06 10:38:59;;;;;;;1.13;0.50;;;;;;;30.19;36.37;100184.47;5088655;28;20190;-70
2023/05/06 10:41:27;;;;;;;0.65;0.60;;;;;;;29.14;38.58;100175.50;5077586;28;20223;-70
2023/05/06 10:43:56;;;;;;;2.15;0.93;;;;;;;26.70;43.57;100168.34;5087904;28;20199;-68
2023/05/06 10:46:23;;;;;;;1.27;0.70;;;;;;;26.32;45.59;100167.75;5046533;28;20290;-69
2023/05/06 10:49:10;;;;;;;1.95;1.00;;;;;;;25.88;47.08;100161.53;5087360;28;20210;-69
2023/05/06 10:51:39;;;;;;;2.67;1.10;;;;;;;25.20;51.63;100162.31;5077164;28;20305;-70
2023/05/06 10:54:08;;;;;;;1.40;0.90;;;;;;;23.80;54.62;100158.69;5088328;28;20195;-69
2023/05/06 10:56:35;;;;;;;1.08;0.95;;;;;;;22.62;66.82;100156.41;5088415;28;20208;-70
2023/05/06 10:59:06;;;;;;;2.22;0.60;;;;;;;22.35;64.65;100147.78;5088737;28;20701;-69
2023/05/06 11:01:32;;;;;;;1.35;0.85;;;;;;;22.62;69.33;100153.78;5056415;28;20725;-69
2023/05/06 11:04:03;;;;;;;1.87;0.97;;;;;;;22.80;69.15;100151.00;5083365;28;20188;-68
2023/05/06 11:06:35;;;;;;;1.57;0.90;;;;;;;23.10;63.10;100157.44;5076707;28;20226;-68
2023/05/06 11:09:03;;;;;;;0.93;0.80;;;;;;;22.83;57.96;100151.50;5069047;28;20208;-69
2023/05/06 11:11:47;;;;;;;0.80;0.67;;;;;;;22.16;60.66;100143.63;5061354;28;20223;-69
2023/05/06 11:14:14;;;;;;;1.23;0.63;;;;;;;22.26;66.46;100146.94;5058651;28;20181;-68
2023/05/06 11:16:49;;;;;;;0.83;0.77;;;;;;;22.13;56.82;100139.53;5071866;28;20690;-68